Time;durP1;ratioP1;P1;durP2;ratioP2;P2;SDS_P1;SDS_P2;PMS_P1;PMS_P2;Temp;Humidity;BMP_temperature;BMP_pressure;BME280_temperature;BME280_humidity;BME280_pressure;Samples;Min_cycle;Max_cycle;Signal;HPM_P1;HPM_P2
2023/12/02 00:00:48;;;;;;;9.75;5.82;;;;;;;;;;6098491;23;19998;-85
2023/12/02 00:03:13;;;;;;;8.05;5.22;;;;;;;;;;6099236;23;20033;-85
2023/12/02 00:05:38;;;;;;;7.43;4.65;;;;;;;;;;6124253;23;20031;-87
2023/12/02 00:08:04;;;;;;;8.68;3.65;;;;;;;;;;6124715;23;20078;-85
2023/12/02 00:10:29;;;;;;;8.60;4.60;;;;;;;;;;6124803;23;20079;-85
2023/12/02 00:12:54;;;;;;;8.68;4.38;;;;;;;;;;6125200;23;19998;-86
2023/12/02 00:15:19;;;;;;;7.93;3.83;;;;;;;;;;6098927;23;19998;-84
2023/12/02 00:17:46;;;;;;;7.20;2.92;;;;;;;;;;6099597;23;20076;-85
2023/12/02 00:20:11;;;;;;;14.23;7.88;;;;;;;;;;6123625;23;20025;-86
2023/12/02 00:22:37;;;;;;;11.40;6.70;;;;;;;;;;6099433;23;20338;-85
2023/12/02 00:25:02;;;;;;;5.97;3.70;;;;;;;;;;6099570;23;20443;-84
2023/12/02 00:27:28;;;;;;;7.38;3.55;;;;;;;;;;6099428;23;20077;-85
2023/12/02 00:29:53;;;;;;;7.03;3.50;;;;;;;;;;6098686;23;20012;-89
2023/12/02 00:32:18;;;;;;;7.28;3.65;;;;;;;;;;6098869;23;20331;-85
2023/12/02 00:34:44;;;;;;;8.32;3.08;;;;;;;;;;6098836;23;19994;-87
2023/12/02 00:37:09;;;;;;;8.82;4.45;;;;;;;;;;6098751;23;19998;-87
2023/12/02 00:39:34;;;;;;;8.35;4.45;;;;;;;;;;6098446;23;20056;-85
2023/12/02 00:42:00;;;;;;;9.02;4.75;;;;;;;;;;6124369;23;20029;-85
2023/12/02 00:44:25;;;;;;;8.23;4.25;;;;;;;;;;6098840;23;20005;-84
2023/12/02 00:46:51;;;;;;;8.70;4.55;;;;;;;;;;6099292;23;20005;-87
2023/12/02 00:49:16;;;;;;;8.63;5.00;;;;;;;;;;6098132;23;20002;-86
2023/12/02 00:51:42;;;;;;;11.27;6.00;;;;;;;;;;6098575;23;20382;-88
2023/12/02 00:54:07;;;;;;;8.55;4.40;;;;;;;;;;6098562;23;20382;-85
2023/12/02 00:56:32;;;;;;;9.25;5.13;;;;;;;;;;6098898;23;20008;-85
2023/12/02 00:58:58;;;;;;;8.07;3.72;;;;;;;;;;6098536;23;20458;-86
2023/12/02 01:01:23;;;;;;;8.88;4.72;;;;;;;;;;6099220;23;20005;-85
2023/12/02 01:03:48;;;;;;;12.23;5.47;;;;;;;;;;6099276;23;20044;-85
2023/12/02 01:06:14;;;;;;;10.05;4.88;;;;;;;;;;6098922;23;20533;-87
2023/12/02 01:08:39;;;;;;;10.35;4.57;;;;;;;;;;6098343;23;20085;-86
2023/12/02 01:11:04;;;;;;;7.97;5.05;;;;;;;;;;6124664;23;20366;-85
2023/12/02 01:13:30;;;;;;;12.27;6.53;;;;;;;;;;6099210;23;20061;-85
2023/12/02 01:15:55;;;;;;;12.95;5.20;;;;;;;;;;6099682;23;20242;-85
2023/12/02 01:18:21;;;;;;;11.52;6.97;;;;;;;;;;6124519;23;20473;-84
2023/12/02 01:20:46;;;;;;;11.50;5.28;;;;;;;;;;6097938;23;20002;-86
2023/12/02 01:23:11;;;;;;;12.98;6.40;;;;;;;;;;6098072;23;19998;-86
2023/12/02 01:25:37;;;;;;;20.08;10.32;;;;;;;;;;6097613;23;20386;-84
2023/12/02 01:28:02;;;;;;;11.73;6.20;;;;;;;;;;6098019;23;20130;-84
2023/12/02 01:30:27;;;;;;;16.38;8.32;;;;;;;;;;6097456;23;19998;-84
2023/12/02 01:32:53;;;;;;;12.15;5.65;;;;;;;;;;6124230;23;20029;-84
2023/12/02 01:35:19;;;;;;;10.75;5.35;;;;;;;;;;6123303;23;20025;-84
2023/12/02 01:37:44;;;;;;;12.75;5.65;;;;;;;;;;6097720;23;20046;-86
2023/12/02 01:40:12;;;;;;;13.50;7.32;;;;;;;;;;6096951;23;20018;-86
2023/12/02 01:42:37;;;;;;;9.82;5.00;;;;;;;;;;6097526;23;20002;-85
2023/12/02 01:45:03;;;;;;;11.23;6.75;;;;;;;;;;6097282;23;20002;-85
2023/12/02 01:47:28;;;;;;;9.25;4.25;;;;;;;;;;6097408;23;20002;-85
2023/12/02 01:49:55;;;;;;;8.13;4.47;;;;;;;;;;6096085;23;20001;-85
2023/12/02 01:52:21;;;;;;;17.77;8.27;;;;;;;;;;6096414;23;19998;-85
2023/12/02 01:54:47;;;;;;;18.02;7.88;;;;;;;;;;6097063;23;20006;-85
2023/12/02 01:57:13;;;;;;;11.70;6.15;;;;;;;;;;6096120;23;20004;-85
2023/12/02 01:59:43;;;;;;;11.32;4.00;;;;;;;;;;6096387;23;20342;-84
2023/12/02 02:02:09;;;;;;;13.18;7.65;;;;;;;;;;6122660;23;20001;-85
2023/12/02 02:04:34;;;;;;;22.40;11.77;;;;;;;;;;6096878;23;20005;-83
2023/12/02 02:07:00;;;;;;;16.85;7.03;;;;;;;;;;6096399;23;20057;-87
2023/12/02 02:09:25;;;;;;;12.55;7.32;;;;;;;;;;6121811;23;20475;-84
2023/12/02 02:11:51;;;;;;;9.95;5.63;;;;;;;;;;6095957;23;20448;-86
2023/12/02 02:14:16;;;;;;;10.75;5.32;;;;;;;;;;6096443;23;20002;-84
2023/12/02 02:16:41;;;;;;;17.67;8.38;;;;;;;;;;6096005;23;20004;-86
2023/12/02 02:19:07;;;;;;;8.82;3.53;;;;;;;;;;6096234;23;20086;-88
2023/12/02 02:21:33;;;;;;;9.32;4.80;;;;;;;;;;6095774;23;20014;-86
2023/12/02 02:23:58;;;;;;;14.05;5.60;;;;;;;;;;6095916;23;20315;-85
2023/12/02 02:26:23;;;;;;;10.90;5.53;;;;;;;;;;6096316;23;20342;-85
2023/12/02 02:28:49;;;;;;;7.53;3.70;;;;;;;;;;6096117;23;20008;-86
2023/12/02 02:31:14;;;;;;;7.45;3.95;;;;;;;;;;6096218;23;20478;-87
2023/12/02 02:33:39;;;;;;;5.90;3.20;;;;;;;;;;6122570;23;20449;-84
2023/12/02 02:36:05;;;;;;;7.55;4.38;;;;;;;;;;6095845;23;20002;-87
2023/12/02 02:38:30;;;;;;;12.07;5.75;;;;;;;;;;6097825;23;20085;-85
2023/12/02 02:40:56;;;;;;;10.85;5.10;;;;;;;;;;6092996;23;20018;-84
2023/12/02 02:43:21;;;;;;;7.53;3.70;;;;;;;;;;6093464;23;20006;-85
2023/12/02 02:45:46;;;;;;;7.07;3.20;;;;;;;;;;6093077;23;19998;-86
2023/12/02 02:48:11;;;;;;;7.72;3.60;;;;;;;;;;6093412;23;20010;-86
2023/12/02 02:50:37;;;;;;;7.38;3.55;;;;;;;;;;6092734;23;20002;-86
2023/12/02 02:53:02;;;;;;;8.63;3.25;;;;;;;;;;6093403;23;20344;-86
2023/12/02 02:55:27;;;;;;;8.15;3.28;;;;;;;;;;6093211;23;20010;-86
2023/12/02 02:57:53;;;;;;;7.25;2.83;;;;;;;;;;6093354;23;20093;-87
2023/12/02 03:00:18;;;;;;;6.43;3.00;;;;;;;;;;6093086;23;20003;-85
2023/12/02 03:02:44;;;;;;;8.15;2.95;;;;;;;;;;6092828;23;20007;-86
2023/12/02 03:05:09;;;;;;;8.00;3.15;;;;;;;;;;6093486;23;20057;-86
2023/12/02 03:07:34;;;;;;;8.27;3.13;;;;;;;;;;6093115;23;20088;-84
2023/12/02 03:10:00;;;;;;;9.75;3.90;;;;;;;;;;6092664;23;20062;-86
2023/12/02 03:12:26;;;;;;;9.68;3.83;;;;;;;;;;6092632;23;20002;-86
2023/12/02 03:14:53;;;;;;;8.40;3.55;;;;;;;;;;6093077;23;19994;-85
2023/12/02 03:17:18;;;;;;;7.30;3.60;;;;;;;;;;6093324;23;20002;-85
2023/12/02 03:19:44;;;;;;;8.70;3.45;;;;;;;;;;6093016;23;20453;-85
2023/12/02 03:22:09;;;;;;;9.40;3.40;;;;;;;;;;6094133;23;20002;-84
2023/12/02 03:24:35;;;;;;;8.43;3.67;;;;;;;;;;6092988;23;20018;-84
2023/12/02 03:27:00;;;;;;;10.13;3.70;;;;;;;;;;6093015;23;20002;-87
2023/12/02 03:29:26;;;;;;;6.85;3.03;;;;;;;;;;6092633;23;20033;-87
2023/12/02 03:31:51;;;;;;;5.93;2.83;;;;;;;;;;6092672;23;20021;-86
2023/12/02 03:34:16;;;;;;;8.85;3.45;;;;;;;;;;6093550;23;20002;-86
2023/12/02 03:36:41;;;;;;;9.43;3.97;;;;;;;;;;6093153;23;20423;-86
2023/12/02 03:39:07;;;;;;;9.00;3.70;;;;;;;;;;6092665;23;20006;-86
2023/12/02 03:41:32;;;;;;;7.95;3.35;;;;;;;;;;6092220;23;20093;-86
2023/12/02 03:43:57;;;;;;;7.10;3.30;;;;;;;;;;6093633;23;20418;-84
2023/12/02 03:46:23;;;;;;;11.48;4.40;;;;;;;;;;6093683;23;20435;-85
2023/12/02 03:48:48;;;;;;;7.93;3.40;;;;;;;;;;6094566;23;20003;-85
2023/12/02 03:51:13;;;;;;;7.63;3.15;;;;;;;;;;6094453;23;19998;-84
2023/12/02 03:53:39;;;;;;;5.65;3.38;;;;;;;;;;6093201;23;20021;-85
2023/12/02 03:56:05;;;;;;;6.88;2.90;;;;;;;;;;6092914;23;20606;-84
2023/12/02 03:58:31;;;;;;;6.60;3.00;;;;;;;;;;6092485;23;20005;-85
2023/12/02 04:00:56;;;;;;;7.65;2.90;;;;;;;;;;6092614;23;20339;-85
2023/12/02 04:03:21;;;;;;;7.13;3.47;;;;;;;;;;6092680;23;20443;-85
2023/12/02 04:05:47;;;;;;;6.07;2.60;;;;;;;;;;6092608;23;19999;-85
2023/12/02 04:08:12;;;;;;;6.20;2.97;;;;;;;;;;6092711;23;20551;-86
2023/12/02 04:10:37;;;;;;;5.63;3.35;;;;;;;;;;6092368;23;20006;-85
2023/12/02 04:13:05;;;;;;;8.20;3.42;;;;;;;;;;6092074;23;20002;-86
2023/12/02 04:15:30;;;;;;;8.32;3.05;;;;;;;;;;6092601;23;20423;-87
2023/12/02 04:17:55;;;;;;;7.85;3.20;;;;;;;;;;6092558;23;20006;-86
2023/12/02 04:20:21;;;;;;;6.22;2.97;;;;;;;;;;6093466;23;20037;-87
2023/12/02 04:22:47;;;;;;;9.70;4.50;;;;;;;;;;6092366;23;20413;-86
2023/12/02 04:25:13;;;;;;;6.82;2.85;;;;;;;;;;6092914;23;20439;-85
2023/12/02 04:27:41;;;;;;;6.45;2.55;;;;;;;;;;6092689;23;20104;-87
2023/12/02 04:30:08;;;;;;;5.60;3.00;;;;;;;;;;6091940;23;20006;-85
2023/12/02 04:32:33;;;;;;;7.78;3.20;;;;;;;;;;6092220;23;20474;-86
2023/12/02 04:34:59;;;;;;;6.13;2.90;;;;;;;;;;6091838;23;20037;-87
2023/12/02 04:37:24;;;;;;;6.38;2.47;;;;;;;;;;6092650;23;20467;-85
2023/12/02 04:39:51;;;;;;;5.32;2.42;;;;;;;;;;6093360;23;20089;-85
2023/12/02 04:42:16;;;;;;;7.22;3.03;;;;;;;;;;6123309;23;20002;-85
2023/12/02 04:44:41;;;;;;;8.73;2.80;;;;;;;;;;6096644;23;20018;-85
2023/12/02 04:47:06;;;;;;;6.25;2.70;;;;;;;;;;6096815;23;20077;-85
2023/12/02 04:49:32;;;;;;;10.80;4.22;;;;;;;;;;6096575;23;20052;-85
2023/12/02 04:51:57;;;;;;;6.43;3.67;;;;;;;;;;6095821;23;20006;-86
2023/12/02 04:54:23;;;;;;;7.40;3.33;;;;;;;;;;6096411;23;20053;-85
2023/12/02 04:56:48;;;;;;;8.45;3.40;;;;;;;;;;6096728;23;20453;-86
2023/12/02 04:59:13;;;;;;;6.00;3.58;;;;;;;;;;6096733;23;20009;-86
2023/12/02 05:01:39;;;;;;;8.57;2.70;;;;;;;;;;6096572;23;20029;-85
2023/12/02 05:04:05;;;;;;;9.57;3.10;;;;;;;;;;6097009;23;20210;-86
2023/12/02 05:06:31;;;;;;;5.32;2.97;;;;;;;;;;6097185;23;20052;-86
2023/12/02 05:08:56;;;;;;;7.15;3.22;;;;;;;;;;6096620;23;20423;-86
2023/12/02 05:11:22;;;;;;;9.25;3.67;;;;;;;;;;6096372;23;20002;-85
2023/12/02 05:13:47;;;;;;;9.13;3.88;;;;;;;;;;6096799;23;20002;-85
2023/12/02 05:16:13;;;;;;;12.13;4.25;;;;;;;;;;6096802;23;20006;-86
2023/12/02 05:18:39;;;;;;;8.05;4.15;;;;;;;;;;6096809;23;20450;-84
2023/12/02 05:21:04;;;;;;;8.73;4.43;;;;;;;;;;6122036;23;20061;-86
2023/12/02 05:23:29;;;;;;;5.28;3.28;;;;;;;;;;6122293;23;20002;-84
2023/12/02 05:25:54;;;;;;;8.27;2.72;;;;;;;;;;6096973;23;20461;-87
2023/12/02 05:28:22;;;;;;;8.85;5.05;;;;;;;;;;6096287;23;20053;-85
2023/12/02 05:30:47;;;;;;;8.23;3.83;;;;;;;;;;6096542;23;20001;-87
2023/12/02 05:33:13;;;;;;;10.35;4.82;;;;;;;;;;6122251;23;20037;-83
2023/12/02 05:35:38;;;;;;;8.95;3.92;;;;;;;;;;6096307;23;20009;-84
2023/12/02 05:38:03;;;;;;;10.63;5.28;;;;;;;;;;6122323;23;20001;-85
2023/12/02 05:40:29;;;;;;;12.80;6.40;;;;;;;;;;6121657;23;20029;-86
2023/12/02 05:42:54;;;;;;;14.23;6.88;;;;;;;;;;6122948;23;20008;-84
2023/12/02 05:45:19;;;;;;;19.85;9.27;;;;;;;;;;6095964;23;20006;-84
2023/12/02 05:47:45;;;;;;;17.08;7.93;;;;;;;;;;6122340;23;20065;-83
2023/12/02 05:50:10;;;;;;;23.80;9.32;;;;;;;;;;6098628;23;20453;-83
2023/12/02 05:52:36;;;;;;;22.65;12.18;;;;;;;;;;6105625;23;19994;-83
2023/12/02 05:55:01;;;;;;;17.75;8.07;;;;;;;;;;6104006;23;20009;-84
2023/12/02 05:57:26;;;;;;;18.70;8.98;;;;;;;;;;6102697;23;20703;-82
2023/12/02 05:59:51;;;;;;;19.45;8.50;;;;;;;;;;6129591;23;20058;-84
2023/12/02 06:02:17;;;;;;;11.77;5.10;;;;;;;;;;6108092;23;20028;-84
2023/12/02 06:04:42;;;;;;;12.85;6.15;;;;;;;;;;6109869;23;20236;-83
2023/12/02 06:07:07;;;;;;;11.63;5.40;;;;;;;;;;6107407;23;19998;-83
2023/12/02 06:09:33;;;;;;;11.40;5.40;;;;;;;;;;6107794;23;20002;-84
2023/12/02 06:11:58;;;;;;;12.30;5.47;;;;;;;;;;6134141;23;20018;-82
2023/12/02 06:14:24;;;;;;;8.40;3.90;;;;;;;;;;6135010;23;20034;-84
2023/12/02 06:16:49;;;;;;;5.72;3.28;;;;;;;;;;6106415;23;20070;-85
2023/12/02 06:19:15;;;;;;;7.97;3.97;;;;;;;;;;6107935;23;20064;-84
2023/12/02 06:21:40;;;;;;;9.57;3.08;;;;;;;;;;6108546;23;20001;-82
2023/12/02 06:24:06;;;;;;;6.57;3.40;;;;;;;;;;6114884;23;19990;-82
2023/12/02 06:26:31;;;;;;;8.70;3.33;;;;;;;;;;6112554;23;19998;-84
2023/12/02 06:28:56;;;;;;;5.63;2.90;;;;;;;;;;6111133;23;20029;-84
2023/12/02 06:31:22;;;;;;;8.57;2.50;;;;;;;;;;6105970;23;20002;-83
2023/12/02 06:33:47;;;;;;;8.48;2.53;;;;;;;;;;6131290;23;19998;-84
2023/12/02 06:36:12;;;;;;;4.72;2.67;;;;;;;;;;6104211;23;20235;-83
2023/12/02 06:38:38;;;;;;;7.40;2.80;;;;;;;;;;6130558;23;19998;-82
2023/12/02 06:41:03;;;;;;;7.80;1.90;;;;;;;;;;6103676;23;20536;-83
2023/12/02 06:43:29;;;;;;;7.78;3.25;;;;;;;;;;6078487;23;20167;-83
2023/12/02 06:45:54;;;;;;;9.00;3.28;;;;;;;;;;6130828;23;20444;-82
2023/12/02 06:48:20;;;;;;;9.32;3.47;;;;;;;;;;6103714;23;20522;-85
2023/12/02 06:50:45;;;;;;;9.50;3.72;;;;;;;;;;6104725;23;20064;-85
2023/12/02 06:53:13;;;;;;;6.20;2.60;;;;;;;;;;6103614;23;19998;-83
2023/12/02 06:55:39;;;;;;;5.35;2.28;;;;;;;;;;6106677;23;20404;-84
2023/12/02 06:58:05;;;;;;;6.63;3.13;;;;;;;;;;6107301;23;20033;-84
2023/12/02 07:00:31;;;;;;;10.10;5.35;;;;;;;;;;6108534;23;20002;-82
2023/12/02 07:02:56;;;;;;;12.00;7.82;;;;;;;;;;6107362;23;20002;-83
2023/12/02 07:05:21;;;;;;;6.88;3.30;;;;;;;;;;6136182;23;20328;-83
2023/12/02 07:07:47;;;;;;;8.93;3.65;;;;;;;;;;6104171;23;20009;-82
2023/12/02 07:10:13;;;;;;;9.35;2.35;;;;;;;;;;6128008;23;20001;-84
2023/12/02 07:12:38;;;;;;;6.50;2.33;;;;;;;;;;6107221;23;19994;-84
2023/12/02 07:15:04;;;;;;;7.75;4.35;;;;;;;;;;6105653;23;20339;-83
2023/12/02 07:17:29;;;;;;;38.17;17.15;;;;;;;;;;6105380;23;20002;-82
2023/12/02 07:19:55;;;;;;;14.13;10.68;;;;;;;;;;6105584;23;20030;-84
2023/12/02 07:22:21;;;;;;;12.27;9.10;;;;;;;;;;6103062;23;20058;-83
2023/12/02 07:24:47;;;;;;;9.60;6.80;;;;;;;;;;6105353;23;20082;-82
2023/12/02 07:27:12;;;;;;;9.60;6.85;;;;;;;;;;6104294;23;20039;-83
2023/12/02 07:29:38;;;;;;;12.75;5.63;;;;;;;;;;6105324;23;20084;-81
2023/12/02 07:32:03;;;;;;;11.15;4.05;;;;;;;;;;6106317;23;20084;-83
2023/12/02 07:34:29;;;;;;;9.35;3.53;;;;;;;;;;6105861;23;20009;-84
2023/12/02 07:36:54;;;;;;;9.20;3.83;;;;;;;;;;6103511;23;20005;-84
2023/12/02 07:39:19;;;;;;;10.82;5.15;;;;;;;;;;6104849;23;20014;-84
2023/12/02 07:41:45;;;;;;;9.30;4.53;;;;;;;;;;6103130;23;20017;-82
2023/12/02 07:44:12;;;;;;;8.20;3.40;;;;;;;;;;6129808;23;20061;-82
2023/12/02 07:46:37;;;;;;;10.10;4.53;;;;;;;;;;6130654;23;20058;-85
2023/12/02 07:49:03;;;;;;;8.60;3.60;;;;;;;;;;6101916;23;20029;-84
2023/12/02 07:51:28;;;;;;;10.73;6.28;;;;;;;;;;6104375;23;20006;-84
2023/12/02 07:53:53;;;;;;;11.13;8.10;;;;;;;;;;6103523;23;20009;-82
2023/12/02 07:56:19;;;;;;;11.27;7.70;;;;;;;;;;6103196;23;20418;-83
2023/12/02 07:58:44;;;;;;;16.98;3.95;;;;;;;;;;6099464;23;20013;-83
2023/12/02 08:01:09;;;;;;;11.38;5.43;;;;;;;;;;6103557;23;20401;-83
2023/12/02 08:03:35;;;;;;;8.60;4.32;;;;;;;;;;6098383;23;20501;-84
2023/12/02 08:06:00;;;;;;;12.45;6.32;;;;;;;;;;6098667;23;20009;-84
2023/12/02 08:08:26;;;;;;;9.32;4.90;;;;;;;;;;6102793;23;20002;-83
2023/12/02 08:10:51;;;;;;;11.65;4.15;;;;;;;;;;6107256;23;20256;-84
2023/12/02 08:13:17;;;;;;;9.40;3.85;;;;;;;;;;6105733;23;20069;-83
2023/12/02 08:15:43;;;;;;;12.18;6.07;;;;;;;;;;6103860;23;20320;-84
2023/12/02 08:18:08;;;;;;;21.95;12.20;;;;;;;;;;6120185;23;20041;-82
2023/12/02 08:20:35;;;;;;;10.45;5.60;;;;;;;;;;6092173;23;20442;-82
2023/12/02 08:23:01;;;;;;;15.55;7.13;;;;;;;;;;6120743;23;20045;-81
2023/12/02 08:25:27;;;;;;;10.05;4.30;;;;;;;;;;6095061;23;20013;-80
2023/12/02 08:27:53;;;;;;;10.07;5.18;;;;;;;;;;6094493;23;19998;-82
2023/12/02 08:30:18;;;;;;;12.85;6.97;;;;;;;;;;6095788;23;20098;-83
2023/12/02 08:32:43;;;;;;;9.18;4.30;;;;;;;;;;6096839;23;20068;-85
2023/12/02 08:35:09;;;;;;;11.30;4.72;;;;;;;;;;6096144;23;20021;-84
2023/12/02 08:37:34;;;;;;;8.73;4.55;;;;;;;;;;6096606;23;19998;-84
2023/12/02 08:40:02;;;;;;;10.52;7.18;;;;;;;;;;6096493;23;20493;-84
2023/12/02 08:42:27;;;;;;;12.88;7.22;;;;;;;;;;6096153;23;20002;-83
2023/12/02 08:44:53;;;;;;;15.23;9.02;;;;;;;;;;6096814;23;20012;-85
2023/12/02 08:47:18;;;;;;;12.77;8.05;;;;;;;;;;6096253;23;20061;-86
2023/12/02 08:49:43;;;;;;;8.48;4.15;;;;;;;;;;6096326;23;20379;-83
2023/12/02 08:52:11;;;;;;;13.20;7.95;;;;;;;;;;6096111;23;19994;-82
2023/12/02 08:54:36;;;;;;;14.50;8.77;;;;;;;;;;6122089;23;20005;-85
2023/12/02 08:57:02;;;;;;;15.77;6.75;;;;;;;;;;6096209;23;20002;-85
2023/12/02 08:59:27;;;;;;;14.98;8.82;;;;;;;;;;6096208;23;20315;-85
2023/12/02 09:01:54;;;;;;;18.10;10.43;;;;;;;;;;6121443;23;20337;-84
2023/12/02 09:04:19;;;;;;;17.13;8.43;;;;;;;;;;6096298;23;20502;-86
2023/12/02 09:06:45;;;;;;;10.32;4.45;;;;;;;;;;6122777;23;20036;-85
2023/12/02 09:09:11;;;;;;;11.82;4.97;;;;;;;;;;6096282;23;19998;-84
2023/12/02 09:11:37;;;;;;;11.73;4.22;;;;;;;;;;6122171;23;20002;-85
2023/12/02 09:14:02;;;;;;;10.18;4.70;;;;;;;;;;6098050;23;20012;-84
2023/12/02 09:16:28;;;;;;;7.55;3.60;;;;;;;;;;6123383;23;20286;-85
2023/12/02 09:18:54;;;;;;;10.23;4.35;;;;;;;;;;6122250;23;20042;-85
2023/12/02 09:21:19;;;;;;;12.88;5.97;;;;;;;;;;6097146;23;20029;-85
2023/12/02 09:23:46;;;;;;;10.90;4.70;;;;;;;;;;6122174;23;19998;-86
2023/12/02 09:26:26;;;;;;;10.13;4.40;;;;;;;;;;6095895;23;20749;-83
2023/12/02 09:28:52;;;;;;;9.68;4.45;;;;;;;;;;6095016;23;20012;-84
2023/12/02 09:31:17;;;;;;;10.95;4.72;;;;;;;;;;6094285;23;20504;-83
2023/12/02 09:33:45;;;;;;;13.02;5.03;;;;;;;;;;6119777;23;20006;-84
2023/12/02 09:36:26;;;;;;;11.73;4.85;;;;;;;;;;6093653;23;20013;-83
2023/12/02 09:38:52;;;;;;;18.30;7.53;;;;;;;;;;6093323;23;20005;-83
2023/12/02 09:41:24;;;;;;;11.57;4.63;;;;;;;;;;6093505;23;20465;-84
2023/12/02 09:43:52;;;;;;;22.65;10.63;;;;;;;;;;6092855;23;20006;-85
2023/12/02 09:46:32;;;;;;;15.05;7.20;;;;;;;;;;6119009;23;20022;-84
2023/12/02 09:49:13;;;;;;;10.95;5.80;;;;;;;;;;6093091;23;20001;-84
2023/12/02 09:51:54;;;;;;;9.38;5.38;;;;;;;;;;6092262;23;20009;-85
2023/12/02 09:54:20;;;;;;;12.98;5.85;;;;;;;;;;6093547;23;20033;-84
2023/12/02 09:56:51;;;;;;;10.65;5.25;;;;;;;;;;6093042;23;20005;-84
2023/12/02 09:59:22;;;;;;;10.60;5.15;;;;;;;;;;6068980;23;20100;-86
2023/12/02 10:01:52;;;;;;;14.35;6.65;;;;;;;;;;6092058;23;19998;-84
2023/12/02 10:04:20;;;;;;;11.77;4.00;;;;;;;;;;6090482;23;20012;-85
2023/12/02 10:06:57;;;;;;;11.30;6.50;;;;;;;;;;6121071;23;19998;-84
2023/12/02 10:09:26;;;;;;;9.60;3.00;;;;;;;;;;6095320;23;20032;-85
2023/12/02 10:12:00;;;;;;;14.82;6.25;;;;;;;;;;6120048;23;19998;-84
2023/12/02 10:14:25;;;;;;;11.52;6.70;;;;;;;;;;6095452;23;20218;-85
2023/12/02 10:16:54;;;;;;;9.05;5.57;;;;;;;;;;6121233;23;20064;-85
2023/12/02 10:19:19;;;;;;;;;;;;;;;;;;6114901;23;20001;-84
2023/12/02 10:21:45;;;;;;;25.87;15.77;;;;;;;;;;6094869;23;19935;-85
2023/12/02 10:24:11;;;;;;;10.38;6.30;;;;;;;;;;6095685;23;19997;-84
2023/12/02 10:26:41;;;;;;;11.60;6.18;;;;;;;;;;6095547;23;20032;-87
2023/12/02 10:29:37;;;;;;;8.65;5.18;;;;;;;;;;6121404;23;20005;-83
2023/12/02 10:32:18;;;;;;;6.75;3.70;;;;;;;;;;5974706;24;20087;-83
2023/12/02 10:35:01;;;;;;;12.30;4.95;;;;;;;;;;5952456;24;20048;-84
2023/12/02 10:37:35;;;;;;;13.60;4.68;;;;;;;;;;5952590;24;20016;-82
2023/12/02 10:40:06;;;;;;;9.88;3.50;;;;;;;;;;5974742;24;20004;-82
2023/12/02 10:42:38;;;;;;;9.25;3.63;;;;;;;;;;5951122;24;20012;-82
2023/12/02 10:45:04;;;;;;;13.23;5.55;;;;;;;;;;5951594;24;20008;-81
2023/12/02 10:47:31;;;;;;;7.85;4.22;;;;;;;;;;5951360;24;20613;-83
2023/12/02 10:49:57;;;;;;;11.52;5.53;;;;;;;;;;5951562;24;20076;-86
2023/12/02 10:52:25;;;;;;;13.18;4.03;;;;;;;;;;5951371;24;20088;-83
2023/12/02 10:54:52;;;;;;;9.07;4.10;;;;;;;;;;5974985;24;20015;-83
2023/12/02 10:57:19;;;;;;;18.38;6.82;;;;;;;;;;5951499;24;20401;-84
2023/12/02 10:59:50;;;;;;;17.10;9.18;;;;;;;;;;5952801;24;20445;-84
2023/12/02 11:02:30;;;;;;;18.38;10.15;;;;;;;;;;5976674;24;20000;-82
2023/12/02 11:05:22;;;;;;;17.13;9.10;;;;;;;;;;5953166;24;20019;-83
2023/12/02 11:07:51;;;;;;;15.40;8.63;;;;;;;;;;6004552;23;19998;-82
2023/12/02 11:10:21;;;;;;;11.65;7.43;;;;;;;;;;6097628;23;20002;-82
2023/12/02 11:12:46;;;;;;;15.55;8.68;;;;;;;;;;6075060;23;20092;-83
2023/12/02 11:15:12;;;;;;;14.88;7.55;;;;;;;;;;6123900;23;20033;-85
2023/12/02 11:17:43;;;;;;;12.40;4.53;;;;;;;;;;6101390;23;20435;-83
2023/12/02 11:20:22;;;;;;;17.45;8.40;;;;;;;;;;6101376;23;20061;-82
2023/12/02 11:23:06;;;;;;;20.42;10.60;;;;;;;;;;6099120;23;19998;-84
2023/12/02 11:25:35;;;;;;;;;;;;;;;;;;6123616;23;19997;-82
2023/12/02 11:28:16;;;;;;;17.13;7.50;;;;;;;;;;6097512;23;19955;-81
2023/12/02 11:30:44;;;;;;;14.55;8.20;;;;;;;;;;6097136;23;20026;-83
2023/12/02 11:33:22;;;;;;;15.18;6.13;;;;;;;;;;6096943;23;20009;-85
2023/12/02 11:36:03;;;;;;;14.60;6.70;;;;;;;;;;6122918;23;19994;-85
2023/12/02 11:38:30;;;;;;;13.45;6.00;;;;;;;;;;6123218;23;20006;-84
2023/12/02 11:41:08;;;;;;;6.78;3.22;;;;;;;;;;6096825;23;20033;-82
2023/12/02 11:43:34;;;;;;;9.33;3.70;;;;;;;;;;6096830;23;20002;-83
2023/12/02 11:46:04;;;;;;;10.85;4.15;;;;;;;;;;6097988;23;20002;-83
2023/12/02 11:48:46;;;;;;;11.00;4.20;;;;;;;;;;6072788;23;20404;-83
2023/12/02 11:51:30;;;;;;;10.70;4.75;;;;;;;;;;6097825;23;20002;-84
2023/12/02 11:54:06;;;;;;;8.60;4.32;;;;;;;;;;6098463;23;20002;-84
2023/12/02 11:56:32;;;;;;;12.52;6.13;;;;;;;;;;6125769;23;20069;-84
2023/12/02 11:59:09;;;;;;;14.43;8.80;;;;;;;;;;6096074;23;20028;-84
2023/12/02 12:01:37;;;;;;;15.10;7.78;;;;;;;;;;6122026;23;20002;-82
2023/12/02 12:04:09;;;;;;;11.07;5.57;;;;;;;;;;6096701;23;20002;-83
2023/12/02 12:06:39;;;;;;;13.52;6.47;;;;;;;;;;6096535;23;19997;-84
2023/12/02 12:09:26;;;;;;;16.90;8.52;;;;;;;;;;6096235;23;20234;-83
2023/12/02 12:11:53;;;;;;;20.77;11.98;;;;;;;;;;6127784;23;20427;-85
2023/12/02 12:14:19;;;;;;;12.50;5.47;;;;;;;;;;6101074;23;20006;-83
2023/12/02 12:16:44;;;;;;;13.52;6.53;;;;;;;;;;6103402;23;20466;-84
2023/12/02 12:19:10;;;;;;;15.25;8.07;;;;;;;;;;6127150;23;20002;-84
2023/12/02 12:21:35;;;;;;;18.08;9.00;;;;;;;;;;6101915;23;20002;-83
2023/12/02 12:24:00;;;;;;;12.00;5.82;;;;;;;;;;6103187;23;20010;-84
2023/12/02 12:26:26;;;;;;;19.05;8.15;;;;;;;;;;6098925;23;20084;-83
2023/12/02 12:28:53;;;;;;;10.43;5.43;;;;;;;;;;6123106;23;20323;-84
2023/12/02 12:31:19;;;;;;;17.15;9.60;;;;;;;;;;6090511;23;20002;-82
2023/12/02 12:33:49;;;;;;;27.67;13.63;;;;;;;;;;6100260;23;20430;-83
2023/12/02 12:36:14;;;;;;;33.67;17.15;;;;;;;;;;6097924;23;20002;-83
2023/12/02 12:38:39;;;;;;;10.18;5.70;;;;;;;;;;6122743;23;20430;-82
2023/12/02 12:41:08;;;;;;;32.85;15.02;;;;;;;;;;6097349;23;20069;-83
2023/12/02 12:43:36;;;;;;;11.15;4.47;;;;;;;;;;6096970;23;20316;-84
2023/12/02 12:46:02;;;;;;;;;;;;;;;;;;6123157;23;20020;-80
2023/12/02 12:48:27;;;;;;;20.98;9.70;;;;;;;;;;6097539;23;20634;-84
2023/12/02 12:50:59;;;;;;;21.35;9.60;;;;;;;;;;6097428;23;20005;-84
2023/12/02 12:53:28;;;;;;;14.77;7.28;;;;;;;;;;6097746;23;20051;-81
2023/12/02 12:55:57;;;;;;;26.05;11.60;;;;;;;;;;6096679;23;20053;-83
2023/12/02 12:58:24;;;;;;;12.38;5.97;;;;;;;;;;6096667;23;20005;-83
2023/12/02 13:00:50;;;;;;;12.07;5.43;;;;;;;;;;6122209;23;20068;-82
2023/12/02 13:03:38;;;;;;;13.77;4.88;;;;;;;;;;6096942;23;20002;-82
2023/12/02 13:06:16;;;;;;;12.75;6.68;;;;;;;;;;6077575;23;20010;-81
2023/12/02 13:08:47;;;;;;;11.97;5.37;;;;;;;;;;6123372;23;20077;-82
2023/12/02 13:11:18;;;;;;;27.45;12.23;;;;;;;;;;6096954;23;20082;-83
2023/12/02 13:13:44;;;;;;;23.77;6.97;;;;;;;;;;6097035;23;20010;-82
2023/12/02 13:16:10;;;;;;;16.50;9.05;;;;;;;;;;6095682;23;20001;-83
2023/12/02 13:18:38;;;;;;;11.63;5.43;;;;;;;;;;6121737;23;20005;-82
2023/12/02 13:21:04;;;;;;;22.17;13.93;;;;;;;;;;6095686;23;20006;-83
2023/12/02 13:23:30;;;;;;;18.10;5.82;;;;;;;;;;6121585;23;19998;-81
2023/12/02 13:26:01;;;;;;;14.32;5.72;;;;;;;;;;6094620;23;19998;-82
2023/12/02 13:28:29;;;;;;;10.88;5.93;;;;;;;;;;6095038;23;20006;-81
2023/12/02 13:30:55;;;;;;;11.18;3.70;;;;;;;;;;6122187;23;20466;-80
2023/12/02 13:33:25;;;;;;;12.82;3.63;;;;;;;;;;6122049;23;20005;-82
2023/12/02 13:35:57;;;;;;;13.05;3.47;;;;;;;;;;6121854;23;20006;-82
2023/12/02 13:38:39;;;;;;;13.07;5.10;;;;;;;;;;6096151;23;20002;-82
2023/12/02 13:41:23;;;;;;;13.18;4.40;;;;;;;;;;6094658;23;20025;-80
2023/12/02 13:43:52;;;;;;;13.38;3.10;;;;;;;;;;6095026;23;20009;-83
2023/12/02 13:46:20;;;;;;;21.20;6.80;;;;;;;;;;6095939;23;20009;-84
2023/12/02 13:48:46;;;;;;;23.55;6.18;;;;;;;;;;6095496;23;20009;-82
2023/12/02 13:51:29;;;;;;;14.82;6.35;;;;;;;;;;6095344;23;20002;-82
2023/12/02 13:54:03;;;;;;;14.55;5.55;;;;;;;;;;6095114;23;20002;-82
2023/12/02 13:56:36;;;;;;;14.73;4.28;;;;;;;;;;6095536;23;20081;-81
2023/12/02 13:59:08;;;;;;;16.08;6.18;;;;;;;;;;6095336;23;20002;-82
2023/12/02 14:01:38;;;;;;;11.65;4.47;;;;;;;;;;6121430;23;20754;-82
2023/12/02 14:04:12;;;;;;;17.58;5.63;;;;;;;;;;6121123;23;20005;-83
2023/12/02 14:06:58;;;;;;;14.57;6.80;;;;;;;;;;6120711;23;20005;-81
2023/12/02 14:09:25;;;;;;;13.73;5.03;;;;;;;;;;6069723;23;20429;-82
2023/12/02 14:12:05;;;;;;;13.38;6.82;;;;;;;;;;6120568;23;20002;-79
2023/12/02 14:14:43;;;;;;;17.48;7.07;;;;;;;;;;6119385;23;19997;-79
2023/12/02 14:17:08;;;;;;;21.45;10.40;;;;;;;;;;6094240;23;20057;-82
2023/12/02 14:19:36;;;;;;;21.88;7.70;;;;;;;;;;6119575;23;20002;-80
2023/12/02 14:22:22;;;;;;;23.65;10.30;;;;;;;;;;6120274;23;19998;-81
2023/12/02 14:24:51;;;;;;;30.27;12.50;;;;;;;;;;5973843;24;20596;-83
2023/12/02 14:27:28;;;;;;;24.70;12.15;;;;;;;;;;5950582;24;20598;-83
2023/12/02 14:30:00;;;;;;;19.05;9.57;;;;;;;;;;5949702;24;20378;-83
2023/12/02 14:32:31;;;;;;;22.08;10.27;;;;;;;;;;5951948;24;20008;-81
2023/12/02 14:35:02;;;;;;;17.50;7.85;;;;;;;;;;5955396;24;20016;-80
2023/12/02 14:37:28;;;;;;;15.32;6.55;;;;;;;;;;5955215;24;20513;-80